sensor_id;sensor_type;location;lat;lon;timestamp;P1;durP1;ratioP1;P2;durP2;ratioP2
32455;SDS011;18912;43.270;27.942;2022-08-03T00:02:21;20.27;;;11.60;;
32455;SDS011;18912;43.270;27.942;2022-08-03T00:04:47;18.97;;;12.47;;
32455;SDS011;18912;43.270;27.942;2022-08-03T00:07:13;21.73;;;13.20;;
32455;SDS011;18912;43.270;27.942;2022-08-03T00:09:38;20.13;;;13.20;;
32455;SDS011;18912;43.270;27.942;2022-08-03T00:12:04;16.27;;;13.07;;
32455;SDS011;18912;43.270;27.942;2022-08-03T00:14:30;19.42;;;13.55;;
32455;SDS011;18912;43.270;27.942;2022-08-03T00:16:55;17.23;;;12.77;;
32455;SDS011;18912;43.270;27.942;2022-08-03T00:19:22;18.85;;;12.98;;
32455;SDS011;18912;43.270;27.942;2022-08-03T00:21:47;14.60;;;11.70;;
32455;SDS011;18912;43.270;27.942;2022-08-03T00:24:13;13.73;;;11.07;;
32455;SDS011;18912;43.270;27.942;2022-08-03T00:26:38;16.27;;;11.80;;
32455;SDS011;18912;43.270;27.942;2022-08-03T00:29:03;19.97;;;11.43;;
32455;SDS011;18912;43.270;27.942;2022-08-03T00:31:29;13.23;;;10.57;;
32455;SDS011;18912;43.270;27.942;2022-08-03T00:33:54;11.77;;;9.77;;
32455;SDS011;18912;43.270;27.942;2022-08-03T00:36:20;18.80;;;8.50;;
32455;SDS011;18912;43.270;27.942;2022-08-03T00:38:45;10.27;;;7.23;;
32455;SDS011;18912;43.270;27.942;2022-08-03T00:41:11;12.60;;;7.33;;
32455;SDS011;18912;43.270;27.942;2022-08-03T00:43:36;9.03;;;6.27;;
32455;SDS011;18912;43.270;27.942;2022-08-03T00:46:02;6.63;;;5.80;;
32455;SDS011;18912;43.270;27.942;2022-08-03T00:48:27;7.77;;;5.80;;
32455;SDS011;18912;43.270;27.942;2022-08-03T00:50:53;7.30;;;5.77;;
32455;SDS011;18912;43.270;27.942;2022-08-03T00:53:18;15.30;;;7.97;;
32455;SDS011;18912;43.270;27.942;2022-08-03T00:55:44;16.13;;;9.00;;
32455;SDS011;18912;43.270;27.942;2022-08-03T00:58:10;15.13;;;9.50;;
32455;SDS011;18912;43.270;27.942;2022-08-03T01:00:36;18.50;;;9.90;;
32455;SDS011;18912;43.270;27.942;2022-08-03T01:03:03;13.80;;;8.85;;
32455;SDS011;18912;43.270;27.942;2022-08-03T01:05:31;17.42;;;8.27;;
32455;SDS011;18912;43.270;27.942;2022-08-03T01:08:15;11.73;;;8.30;;
32455;SDS011;18912;43.270;27.942;2022-08-03T01:16:17;9.63;;;7.05;;
32455;SDS011;18912;43.270;27.942;2022-08-03T01:21:25;12.63;;;7.22;;
32455;SDS011;18912;43.270;27.942;2022-08-03T01:26:47;8.98;;;6.72;;
32455;SDS011;18912;43.270;27.942;2022-08-03T01:32:10;10.55;;;6.68;;
32455;SDS011;18912;43.270;27.942;2022-08-03T01:34:40;14.45;;;6.05;;
32455;SDS011;18912;43.270;27.942;2022-08-03T01:37:17;9.23;;;6.78;;
32455;SDS011;18912;43.270;27.942;2022-08-03T01:39:48;7.78;;;6.45;;
32455;SDS011;18912;43.270;27.942;2022-08-03T01:42:17;11.10;;;6.80;;
32455;SDS011;18912;43.270;27.942;2022-08-03T01:44:44;9.85;;;5.85;;
32455;SDS011;18912;43.270;27.942;2022-08-03T01:47:12;8.77;;;6.57;;
32455;SDS011;18912;43.270;27.942;2022-08-03T01:49:42;10.40;;;7.10;;
32455;SDS011;18912;43.270;27.942;2022-08-03T01:52:09;9.05;;;6.60;;
32455;SDS011;18912;43.270;27.942;2022-08-03T01:54:41;13.13;;;7.00;;
32455;SDS011;18912;43.270;27.942;2022-08-03T01:57:09;14.02;;;6.53;;
32455;SDS011;18912;43.270;27.942;2022-08-03T01:59:35;9.00;;;6.17;;
32455;SDS011;18912;43.270;27.942;2022-08-03T02:02:05;6.68;;;5.28;;
32455;SDS011;18912;43.270;27.942;2022-08-03T02:04:32;7.10;;;5.38;;
32455;SDS011;18912;43.270;27.942;2022-08-03T02:07:00;11.02;;;5.85;;
32455;SDS011;18912;43.270;27.942;2022-08-03T02:11:53;7.00;;;5.88;;
32455;SDS011;18912;43.270;27.942;2022-08-03T02:14:20;8.75;;;5.93;;
32455;SDS011;18912;43.270;27.942;2022-08-03T02:16:48;7.13;;;5.80;;
32455;SDS011;18912;43.270;27.942;2022-08-03T02:19:14;12.85;;;4.97;;
32455;SDS011;18912;43.270;27.942;2022-08-03T02:24:07;8.13;;;5.53;;
32455;SDS011;18912;43.270;27.942;2022-08-03T02:26:33;7.72;;;5.50;;
32455;SDS011;18912;43.270;27.942;2022-08-03T02:29:04;15.90;;;5.82;;
32455;SDS011;18912;43.270;27.942;2022-08-03T02:31:35;8.38;;;5.53;;
32455;SDS011;18912;43.270;27.942;2022-08-03T02:34:03;8.65;;;4.97;;
32455;SDS011;18912;43.270;27.942;2022-08-03T02:36:34;7.75;;;5.18;;
32455;SDS011;18912;43.270;27.942;2022-08-03T02:39:03;6.20;;;4.97;;
32455;SDS011;18912;43.270;27.942;2022-08-03T02:41:31;7.38;;;5.30;;
32455;SDS011;18912;43.270;27.942;2022-08-03T02:44:09;12.30;;;5.05;;
32455;SDS011;18912;43.270;27.942;2022-08-03T02:46:40;7.35;;;4.78;;
32455;SDS011;18912;43.270;27.942;2022-08-03T02:49:09;9.23;;;4.78;;
32455;SDS011;18912;43.270;27.942;2022-08-03T02:51:37;7.82;;;5.05;;
32455;SDS011;18912;43.270;27.942;2022-08-03T02:54:04;7.60;;;4.80;;
32455;SDS011;18912;43.270;27.942;2022-08-03T02:56:32;11.27;;;5.05;;
32455;SDS011;18912;43.270;27.942;2022-08-03T02:58:58;9.75;;;5.20;;
32455;SDS011;18912;43.270;27.942;2022-08-03T03:01:26;13.23;;;5.65;;
32455;SDS011;18912;43.270;27.942;2022-08-03T03:03:53;7.40;;;5.03;;
32455;SDS011;18912;43.270;27.942;2022-08-03T03:06:21;12.18;;;5.10;;
32455;SDS011;18912;43.270;27.942;2022-08-03T03:08:49;9.05;;;5.53;;
32455;SDS011;18912;43.270;27.942;2022-08-03T03:11:16;13.88;;;6.05;;
32455;SDS011;18912;43.270;27.942;2022-08-03T03:13:45;7.60;;;4.75;;
32455;SDS011;18912;43.270;27.942;2022-08-03T03:16:12;9.27;;;5.20;;
32455;SDS011;18912;43.270;27.942;2022-08-03T03:18:39;10.65;;;4.63;;
32455;SDS011;18912;43.270;27.942;2022-08-03T03:21:07;7.57;;;4.72;;
32455;SDS011;18912;43.270;27.942;2022-08-03T03:23:35;7.35;;;5.03;;
32455;SDS011;18912;43.270;27.942;2022-08-03T03:26:02;6.50;;;4.80;;
32455;SDS011;18912;43.270;27.942;2022-08-03T03:28:29;8.55;;;5.22;;
32455;SDS011;18912;43.270;27.942;2022-08-03T03:30:55;7.38;;;4.68;;
32455;SDS011;18912;43.270;27.942;2022-08-03T03:33:22;5.35;;;4.47;;
32455;SDS011;18912;43.270;27.942;2022-08-03T03:35:48;7.97;;;4.77;;
32455;SDS011;18912;43.270;27.942;2022-08-03T03:38:14;7.85;;;4.63;;
32455;SDS011;18912;43.270;27.942;2022-08-03T03:40:39;9.63;;;5.10;;
32455;SDS011;18912;43.270;27.942;2022-08-03T03:43:09;6.57;;;5.10;;
32455;SDS011;18912;43.270;27.942;2022-08-03T03:45:36;5.65;;;4.72;;
32455;SDS011;18912;43.270;27.942;2022-08-03T03:48:05;9.48;;;4.57;;
32455;SDS011;18912;43.270;27.942;2022-08-03T03:50:32;6.95;;;5.00;;
32455;SDS011;18912;43.270;27.942;2022-08-03T03:52:58;7.38;;;4.72;;
32455;SDS011;18912;43.270;27.942;2022-08-03T03:55:24;7.53;;;4.67;;
32455;SDS011;18912;43.270;27.942;2022-08-03T03:57:50;6.27;;;4.73;;
32455;SDS011;18912;43.270;27.942;2022-08-03T04:00:16;6.40;;;4.80;;
32455;SDS011;18912;43.270;27.942;2022-08-03T04:02:43;8.93;;;4.10;;
32455;SDS011;18912;43.270;27.942;2022-08-03T04:05:09;7.00;;;4.38;;
32455;SDS011;18912;43.270;27.942;2022-08-03T04:08:03;8.93;;;4.65;;
32455;SDS011;18912;43.270;27.942;2022-08-03T04:10:55;16.30;;;5.07;;
32455;SDS011;18912;43.270;27.942;2022-08-03T04:14:01;9.13;;;4.55;;
32455;SDS011;18912;43.270;27.942;2022-08-03T04:16:35;6.88;;;4.47;;
32455;SDS011;18912;43.270;27.942;2022-08-03T04:19:04;8.60;;;3.92;;
32455;SDS011;18912;43.270;27.942;2022-08-03T04:21:34;4.90;;;4.00;;
32455;SDS011;18912;43.270;27.942;2022-08-03T04:24:05;8.90;;;3.67;;
32455;SDS011;18912;43.270;27.942;2022-08-03T04:26:35;12.23;;;4.90;;
32455;SDS011;18912;43.270;27.942;2022-08-03T04:29:04;5.07;;;4.28;;
32455;SDS011;18912;43.270;27.942;2022-08-03T04:31:31;11.48;;;4.25;;
32455;SDS011;18912;43.270;27.942;2022-08-03T04:33:56;9.03;;;4.00;;
32455;SDS011;18912;43.270;27.942;2022-08-03T04:36:24;6.93;;;4.33;;
32455;SDS011;18912;43.270;27.942;2022-08-03T04:41:26;8.52;;;3.58;;
32455;SDS011;18912;43.270;27.942;2022-08-03T04:43:53;6.38;;;4.30;;
32455;SDS011;18912;43.270;27.942;2022-08-03T04:46:21;5.45;;;3.60;;
32455;SDS011;18912;43.270;27.942;2022-08-03T04:48:50;5.60;;;3.95;;
32455;SDS011;18912;43.270;27.942;2022-08-03T04:51:16;8.80;;;4.30;;
32455;SDS011;18912;43.270;27.942;2022-08-03T04:53:42;6.13;;;3.90;;
32455;SDS011;18912;43.270;27.942;2022-08-03T04:56:08;8.88;;;3.90;;
32455;SDS011;18912;43.270;27.942;2022-08-03T04:58:34;8.00;;;3.60;;
32455;SDS011;18912;43.270;27.942;2022-08-03T05:00:59;10.40;;;3.30;;
32455;SDS011;18912;43.270;27.942;2022-08-03T05:03:25;3.47;;;2.90;;
32455;SDS011;18912;43.270;27.942;2022-08-03T05:05:51;5.37;;;3.07;;
32455;SDS011;18912;43.270;27.942;2022-08-03T05:08:17;10.13;;;3.00;;
32455;SDS011;18912;43.270;27.942;2022-08-03T05:10:43;5.00;;;2.70;;
32455;SDS011;18912;43.270;27.942;2022-08-03T05:13:08;3.77;;;2.70;;
32455;SDS011;18912;43.270;27.942;2022-08-03T05:15:36;2.78;;;2.47;;
32455;SDS011;18912;43.270;27.942;2022-08-03T05:18:02;9.03;;;4.10;;
32455;SDS011;18912;43.270;27.942;2022-08-03T05:20:28;6.63;;;3.00;;
32455;SDS011;18912;43.270;27.942;2022-08-03T05:22:53;6.70;;;2.60;;
32455;SDS011;18912;43.270;27.942;2022-08-03T05:25:19;8.13;;;2.67;;
32455;SDS011;18912;43.270;27.942;2022-08-03T05:27:44;3.73;;;2.43;;
32455;SDS011;18912;43.270;27.942;2022-08-03T05:30:10;5.67;;;2.70;;
32455;SDS011;18912;43.270;27.942;2022-08-03T05:32:36;2.58;;;2.28;;
32455;SDS011;18912;43.270;27.942;2022-08-03T05:35:01;8.87;;;3.27;;
32455;SDS011;18912;43.270;27.942;2022-08-03T05:37:27;2.50;;;2.10;;
32455;SDS011;18912;43.270;27.942;2022-08-03T05:39:52;18.70;;;2.40;;
32455;SDS011;18912;43.270;27.942;2022-08-03T05:42:17;4.53;;;2.70;;
32455;SDS011;18912;43.270;27.942;2022-08-03T05:44:43;5.50;;;2.43;;
32455;SDS011;18912;43.270;27.942;2022-08-03T05:47:08;3.47;;;2.50;;
32455;SDS011;18912;43.270;27.942;2022-08-03T05:49:34;3.00;;;2.37;;
32455;SDS011;18912;43.270;27.942;2022-08-03T05:51:59;11.63;;;2.40;;
32455;SDS011;18912;43.270;27.942;2022-08-03T05:54:25;2.90;;;2.60;;
32455;SDS011;18912;43.270;27.942;2022-08-03T05:56:50;7.77;;;2.33;;
32455;SDS011;18912;43.270;27.942;2022-08-03T05:59:16;6.50;;;2.93;;
32455;SDS011;18912;43.270;27.942;2022-08-03T06:01:42;3.47;;;2.70;;
32455;SDS011;18912;43.270;27.942;2022-08-03T06:04:07;4.07;;;2.60;;
32455;SDS011;18912;43.270;27.942;2022-08-03T06:06:32;8.60;;;2.63;;
32455;SDS011;18912;43.270;27.942;2022-08-03T06:08:58;3.83;;;2.90;;
32455;SDS011;18912;43.270;27.942;2022-08-03T06:11:23;3.43;;;2.27;;
32455;SDS011;18912;43.270;27.942;2022-08-03T06:13:49;2.93;;;2.30;;
32455;SDS011;18912;43.270;27.942;2022-08-03T06:16:14;3.63;;;1.87;;
32455;SDS011;18912;43.270;27.942;2022-08-03T06:18:40;5.27;;;1.93;;
32455;SDS011;18912;43.270;27.942;2022-08-03T06:21:05;16.67;;;2.57;;
32455;SDS011;18912;43.270;27.942;2022-08-03T06:23:31;3.07;;;2.40;;
32455;SDS011;18912;43.270;27.942;2022-08-03T06:25:56;24.07;;;2.93;;
32455;SDS011;18912;43.270;27.942;2022-08-03T06:28:22;5.03;;;2.10;;
32455;SDS011;18912;43.270;27.942;2022-08-03T06:30:47;7.93;;;2.20;;
32455;SDS011;18912;43.270;27.942;2022-08-03T06:33:13;2.87;;;2.07;;
32455;SDS011;18912;43.270;27.942;2022-08-03T06:35:39;2.77;;;2.27;;
32455;SDS011;18912;43.270;27.942;2022-08-03T06:38:04;5.50;;;2.20;;
32455;SDS011;18912;43.270;27.942;2022-08-03T06:40:30;5.83;;;2.10;;
32455;SDS011;18912;43.270;27.942;2022-08-03T06:43:00;4.25;;;2.00;;
32455;SDS011;18912;43.270;27.942;2022-08-03T06:45:27;7.43;;;2.60;;
32455;SDS011;18912;43.270;27.942;2022-08-03T06:50:47;3.13;;;1.95;;
32455;SDS011;18912;43.270;27.942;2022-08-03T06:53:13;3.60;;;2.10;;
32455;SDS011;18912;43.270;27.942;2022-08-03T06:55:38;5.00;;;2.27;;
32455;SDS011;18912;43.270;27.942;2022-08-03T06:58:04;2.50;;;1.77;;
32455;SDS011;18912;43.270;27.942;2022-08-03T07:00:29;4.53;;;2.20;;
32455;SDS011;18912;43.270;27.942;2022-08-03T07:02:54;8.27;;;2.13;;
32455;SDS011;18912;43.270;27.942;2022-08-03T07:05:20;2.60;;;2.00;;
32455;SDS011;18912;43.270;27.942;2022-08-03T07:07:46;4.53;;;2.15;;
32455;SDS011;18912;43.270;27.942;2022-08-03T07:10:13;6.22;;;1.77;;
32455;SDS011;18912;43.270;27.942;2022-08-03T07:12:38;5.17;;;1.80;;
32455;SDS011;18912;43.270;27.942;2022-08-03T07:15:04;7.10;;;2.00;;
32455;SDS011;18912;43.270;27.942;2022-08-03T07:17:31;3.55;;;2.05;;
32455;SDS011;18912;43.270;27.942;2022-08-03T07:19:58;2.28;;;1.75;;
32455;SDS011;18912;43.270;27.942;2022-08-03T07:22:25;3.85;;;2.28;;
32455;SDS011;18912;43.270;27.942;2022-08-03T07:24:51;8.07;;;2.03;;
32455;SDS011;18912;43.270;27.942;2022-08-03T07:27:17;6.67;;;2.10;;
32455;SDS011;18912;43.270;27.942;2022-08-03T07:29:42;4.17;;;1.63;;
32455;SDS011;18912;43.270;27.942;2022-08-03T07:32:08;3.10;;;1.90;;
32455;SDS011;18912;43.270;27.942;2022-08-03T07:34:33;4.10;;;2.10;;
32455;SDS011;18912;43.270;27.942;2022-08-03T07:36:58;4.57;;;1.80;;
32455;SDS011;18912;43.270;27.942;2022-08-03T07:39:24;8.07;;;2.10;;
32455;SDS011;18912;43.270;27.942;2022-08-03T07:41:49;8.07;;;1.97;;
32455;SDS011;18912;43.270;27.942;2022-08-03T07:44:19;11.27;;;2.03;;
32455;SDS011;18912;43.270;27.942;2022-08-03T07:46:45;6.35;;;1.65;;
32455;SDS011;18912;43.270;27.942;2022-08-03T07:49:11;4.82;;;1.60;;
32455;SDS011;18912;43.270;27.942;2022-08-03T07:51:37;10.07;;;1.75;;
32455;SDS011;18912;43.270;27.942;2022-08-03T07:54:02;5.67;;;1.70;;
32455;SDS011;18912;43.270;27.942;2022-08-03T07:56:28;2.67;;;1.73;;
32455;SDS011;18912;43.270;27.942;2022-08-03T07:58:54;2.53;;;1.88;;
32455;SDS011;18912;43.270;27.942;2022-08-03T08:01:20;7.32;;;2.08;;
32455;SDS011;18912;43.270;27.942;2022-08-03T08:03:46;2.72;;;1.48;;
32455;SDS011;18912;43.270;27.942;2022-08-03T08:08:39;4.93;;;1.70;;
32455;SDS011;18912;43.270;27.942;2022-08-03T08:11:05;7.00;;;2.35;;
32455;SDS011;18912;43.270;27.942;2022-08-03T08:13:31;3.08;;;1.80;;
32455;SDS011;18912;43.270;27.942;2022-08-03T08:15:56;3.60;;;2.10;;
32455;SDS011;18912;43.270;27.942;2022-08-03T08:18:22;2.80;;;1.70;;
32455;SDS011;18912;43.270;27.942;2022-08-03T08:20:53;3.28;;;1.90;;
32455;SDS011;18912;43.270;27.942;2022-08-03T08:23:19;3.25;;;1.80;;
32455;SDS011;18912;43.270;27.942;2022-08-03T08:25:48;7.88;;;1.80;;
32455;SDS011;18912;43.270;27.942;2022-08-03T08:28:17;8.10;;;2.03;;
32455;SDS011;18912;43.270;27.942;2022-08-03T08:30:44;5.03;;;2.00;;
32455;SDS011;18912;43.270;27.942;2022-08-03T08:33:10;4.50;;;1.85;;
32455;SDS011;18912;43.270;27.942;2022-08-03T08:35:36;5.13;;;2.38;;
32455;SDS011;18912;43.270;27.942;2022-08-03T08:38:02;2.85;;;1.92;;
32455;SDS011;18912;43.270;27.942;2022-08-03T08:40:28;4.93;;;1.77;;
32455;SDS011;18912;43.270;27.942;2022-08-03T08:42:54;3.38;;;1.92;;
32455;SDS011;18912;43.270;27.942;2022-08-03T08:45:19;3.28;;;1.80;;
32455;SDS011;18912;43.270;27.942;2022-08-03T08:47:46;5.27;;;1.47;;
32455;SDS011;18912;43.270;27.942;2022-08-03T08:50:12;3.00;;;1.85;;
32455;SDS011;18912;43.270;27.942;2022-08-03T08:52:40;4.18;;;1.60;;
32455;SDS011;18912;43.270;27.942;2022-08-03T08:55:09;4.10;;;1.90;;
32455;SDS011;18912;43.270;27.942;2022-08-03T08:57:41;5.85;;;1.92;;
32455;SDS011;18912;43.270;27.942;2022-08-03T09:00:09;6.97;;;1.73;;
32455;SDS011;18912;43.270;27.942;2022-08-03T09:02:39;3.17;;;1.88;;
32455;SDS011;18912;43.270;27.942;2022-08-03T09:05:18;2.58;;;1.83;;
32455;SDS011;18912;43.270;27.942;2022-08-03T09:07:45;3.47;;;1.75;;
32455;SDS011;18912;43.270;27.942;2022-08-03T09:10:12;8.00;;;1.80;;
32455;SDS011;18912;43.270;27.942;2022-08-03T09:12:43;3.58;;;1.85;;
32455;SDS011;18912;43.270;27.942;2022-08-03T09:15:20;3.95;;;1.90;;
32455;SDS011;18912;43.270;27.942;2022-08-03T09:17:54;4.88;;;1.45;;
32455;SDS011;18912;43.270;27.942;2022-08-03T09:20:22;4.22;;;1.70;;
32455;SDS011;18912;43.270;27.942;2022-08-03T09:25:17;4.88;;;1.60;;
32455;SDS011;18912;43.270;27.942;2022-08-03T09:27:44;4.43;;;1.85;;
32455;SDS011;18912;43.270;27.942;2022-08-03T09:30:14;3.17;;;1.63;;
32455;SDS011;18912;43.270;27.942;2022-08-03T09:32:41;4.85;;;2.10;;
32455;SDS011;18912;43.270;27.942;2022-08-03T09:35:09;6.60;;;2.15;;
32455;SDS011;18912;43.270;27.942;2022-08-03T09:37:35;3.20;;;1.70;;
32455;SDS011;18912;43.270;27.942;2022-08-03T09:40:02;5.47;;;2.22;;
32455;SDS011;18912;43.270;27.942;2022-08-03T09:42:29;5.90;;;1.73;;
32455;SDS011;18912;43.270;27.942;2022-08-03T09:44:54;10.63;;;1.67;;
32455;SDS011;18912;43.270;27.942;2022-08-03T09:50:06;4.35;;;1.55;;
32455;SDS011;18912;43.270;27.942;2022-08-03T09:52:38;3.53;;;1.40;;
32455;SDS011;18912;43.270;27.942;2022-08-03T09:55:08;6.82;;;2.00;;
32455;SDS011;18912;43.270;27.942;2022-08-03T09:57:35;4.07;;;1.85;;
32455;SDS011;18912;43.270;27.942;2022-08-03T10:00:11;3.60;;;1.77;;
32455;SDS011;18912;43.270;27.942;2022-08-03T10:02:42;1.63;;;1.40;;
32455;SDS011;18912;43.270;27.942;2022-08-03T10:05:10;5.55;;;1.63;;
32455;SDS011;18912;43.270;27.942;2022-08-03T10:07:43;3.65;;;1.55;;
32455;SDS011;18912;43.270;27.942;2022-08-03T10:10:11;3.83;;;1.55;;
32455;SDS011;18912;43.270;27.942;2022-08-03T10:12:39;3.65;;;2.03;;
32455;SDS011;18912;43.270;27.942;2022-08-03T10:15:05;6.95;;;1.60;;
32455;SDS011;18912;43.270;27.942;2022-08-03T10:17:31;2.38;;;1.55;;
32455;SDS011;18912;43.270;27.942;2022-08-03T10:19:56;3.77;;;1.53;;
32455;SDS011;18912;43.270;27.942;2022-08-03T10:22:27;4.57;;;1.80;;
32455;SDS011;18912;43.270;27.942;2022-08-03T10:24:59;4.13;;;2.25;;
32455;SDS011;18912;43.270;27.942;2022-08-03T10:27:33;3.63;;;1.80;;
32455;SDS011;18912;43.270;27.942;2022-08-03T10:30:03;6.05;;;2.00;;
32455;SDS011;18912;43.270;27.942;2022-08-03T10:32:34;3.25;;;1.90;;
32455;SDS011;18912;43.270;27.942;2022-08-03T10:35:06;6.60;;;1.48;;
32455;SDS011;18912;43.270;27.942;2022-08-03T10:37:43;4.35;;;1.55;;
32455;SDS011;18912;43.270;27.942;2022-08-03T10:40:12;2.08;;;1.60;;
32455;SDS011;18912;43.270;27.942;2022-08-03T10:42:40;7.07;;;1.63;;
32455;SDS011;18912;43.270;27.942;2022-08-03T10:45:18;7.35;;;2.17;;
32455;SDS011;18912;43.270;27.942;2022-08-03T10:47:50;5.32;;;2.03;;
32455;SDS011;18912;43.270;27.942;2022-08-03T10:50:17;4.80;;;1.73;;
32455;SDS011;18912;43.270;27.942;2022-08-03T10:52:56;5.78;;;1.83;;
32455;SDS011;18912;43.270;27.942;2022-08-03T10:55:28;2.67;;;1.60;;
32455;SDS011;18912;43.270;27.942;2022-08-03T11:01:17;4.13;;;1.60;;
32455;SDS011;18912;43.270;27.942;2022-08-03T11:06:22;3.75;;;1.80;;
32455;SDS011;18912;43.270;27.942;2022-08-03T11:09:31;4.65;;;2.00;;
32455;SDS011;18912;43.270;27.942;2022-08-03T11:11:40;3.90;;;1.60;;
32455;SDS011;18912;43.270;27.942;2022-08-03T11:14:11;2.63;;;1.98;;
32455;SDS011;18912;43.270;27.942;2022-08-03T11:16:45;2.90;;;1.70;;
32455;SDS011;18912;43.270;27.942;2022-08-03T11:19:17;2.15;;;1.30;;
32455;SDS011;18912;43.270;27.942;2022-08-03T11:35:56;7.93;;;5.33;;
32455;SDS011;18912;43.270;27.942;2022-08-03T11:40:40;5.93;;;2.00;;
32455;SDS011;18912;43.270;27.942;2022-08-03T11:46:03;4.15;;;2.17;;
32455;SDS011;18912;43.270;27.942;2022-08-03T11:50:59;6.40;;;2.17;;
32455;SDS011;18912;43.270;27.942;2022-08-03T11:53:32;2.45;;;1.90;;
32455;SDS011;18912;43.270;27.942;2022-08-03T11:55:59;3.40;;;2.15;;
32455;SDS011;18912;43.270;27.942;2022-08-03T11:58:26;4.55;;;2.00;;
32455;SDS011;18912;43.270;27.942;2022-08-03T12:00:55;7.38;;;2.20;;
32455;SDS011;18912;43.270;27.942;2022-08-03T12:03:31;3.60;;;2.15;;
32455;SDS011;18912;43.270;27.942;2022-08-03T12:05:57;2.75;;;1.70;;
32455;SDS011;18912;43.270;27.942;2022-08-03T12:10:51;6.35;;;1.85;;
32455;SDS011;18912;43.270;27.942;2022-08-03T12:13:18;2.97;;;2.00;;
32455;SDS011;18912;43.270;27.942;2022-08-03T12:15:55;6.13;;;2.03;;
32455;SDS011;18912;43.270;27.942;2022-08-03T12:18:23;6.32;;;2.17;;
32455;SDS011;18912;43.270;27.942;2022-08-03T12:23:16;7.60;;;2.20;;
32455;SDS011;18912;43.270;27.942;2022-08-03T12:25:42;2.88;;;1.80;;
32455;SDS011;18912;43.270;27.942;2022-08-03T12:28:16;8.45;;;2.10;;
32455;SDS011;18912;43.270;27.942;2022-08-03T12:30:44;6.13;;;2.35;;
32455;SDS011;18912;43.270;27.942;2022-08-03T12:35:49;9.35;;;2.35;;
32455;SDS011;18912;43.270;27.942;2022-08-03T12:38:38;2.53;;;1.77;;
32455;SDS011;18912;43.270;27.942;2022-08-03T12:41:04;6.28;;;2.22;;
32455;SDS011;18912;43.270;27.942;2022-08-03T12:43:32;6.85;;;2.45;;
32455;SDS011;18912;43.270;27.942;2022-08-03T12:46:08;6.25;;;2.60;;
32455;SDS011;18912;43.270;27.942;2022-08-03T12:48:35;4.05;;;1.75;;
32455;SDS011;18912;43.270;27.942;2022-08-03T12:51:09;4.93;;;2.10;;
32455;SDS011;18912;43.270;27.942;2022-08-03T12:53:35;5.97;;;2.47;;
32455;SDS011;18912;43.270;27.942;2022-08-03T12:56:01;4.43;;;2.20;;
32455;SDS011;18912;43.270;27.942;2022-08-03T12:58:29;7.88;;;2.20;;
32455;SDS011;18912;43.270;27.942;2022-08-03T13:00:57;3.20;;;1.80;;
32455;SDS011;18912;43.270;27.942;2022-08-03T13:03:23;7.93;;;2.30;;
32455;SDS011;18912;43.270;27.942;2022-08-03T13:05:49;8.82;;;2.13;;
32455;SDS011;18912;43.270;27.942;2022-08-03T13:08:18;13.93;;;1.93;;
32455;SDS011;18912;43.270;27.942;2022-08-03T13:10:48;3.53;;;1.75;;
32455;SDS011;18912;43.270;27.942;2022-08-03T13:13:14;3.38;;;1.85;;
32455;SDS011;18912;43.270;27.942;2022-08-03T13:15:40;4.13;;;2.47;;
32455;SDS011;18912;43.270;27.942;2022-08-03T13:18:06;4.07;;;2.37;;
32455;SDS011;18912;43.270;27.942;2022-08-03T13:20:32;3.63;;;1.83;;
32455;SDS011;18912;43.270;27.942;2022-08-03T13:22:58;5.15;;;2.10;;
32455;SDS011;18912;43.270;27.942;2022-08-03T13:25:23;4.10;;;2.00;;
32455;SDS011;18912;43.270;27.942;2022-08-03T13:27:49;10.13;;;2.27;;
32455;SDS011;18912;43.270;27.942;2022-08-03T13:30:16;7.25;;;2.10;;
32455;SDS011;18912;43.270;27.942;2022-08-03T13:32:42;8.57;;;1.95;;
32455;SDS011;18912;43.270;27.942;2022-08-03T13:35:08;7.90;;;2.58;;
32455;SDS011;18912;43.270;27.942;2022-08-03T13:37:34;11.77;;;2.28;;
32455;SDS011;18912;43.270;27.942;2022-08-03T13:40:00;16.73;;;2.83;;
32455;SDS011;18912;43.270;27.942;2022-08-03T13:42:31;5.15;;;2.15;;
32455;SDS011;18912;43.270;27.942;2022-08-03T13:44:59;3.35;;;1.92;;
32455;SDS011;18912;43.270;27.942;2022-08-03T13:47:26;6.50;;;1.90;;
32455;SDS011;18912;43.270;27.942;2022-08-03T13:49:52;6.03;;;1.90;;
32455;SDS011;18912;43.270;27.942;2022-08-03T13:52:18;6.13;;;1.70;;
32455;SDS011;18912;43.270;27.942;2022-08-03T13:54:44;5.15;;;2.20;;
32455;SDS011;18912;43.270;27.942;2022-08-03T13:57:10;2.07;;;1.50;;
32455;SDS011;18912;43.270;27.942;2022-08-03T13:59:35;7.47;;;2.20;;
32455;SDS011;18912;43.270;27.942;2022-08-03T14:02:02;5.47;;;1.80;;
32455;SDS011;18912;43.270;27.942;2022-08-03T14:04:28;2.67;;;1.83;;
32455;SDS011;18912;43.270;27.942;2022-08-03T14:06:54;4.63;;;1.67;;
32455;SDS011;18912;43.270;27.942;2022-08-03T14:09:19;3.17;;;1.77;;
32455;SDS011;18912;43.270;27.942;2022-08-03T14:11:45;4.33;;;1.70;;
32455;SDS011;18912;43.270;27.942;2022-08-03T14:14:10;3.90;;;1.80;;
32455;SDS011;18912;43.270;27.942;2022-08-03T14:16:36;4.90;;;2.00;;
32455;SDS011;18912;43.270;27.942;2022-08-03T14:19:04;6.70;;;2.20;;
32455;SDS011;18912;43.270;27.942;2022-08-03T14:21:31;5.38;;;1.95;;
32455;SDS011;18912;43.270;27.942;2022-08-03T14:23:57;10.02;;;2.17;;
32455;SDS011;18912;43.270;27.942;2022-08-03T14:26:23;5.03;;;1.43;;
32455;SDS011;18912;43.270;27.942;2022-08-03T14:28:48;7.13;;;2.10;;
32455;SDS011;18912;43.270;27.942;2022-08-03T14:31:14;6.50;;;1.87;;
32455;SDS011;18912;43.270;27.942;2022-08-03T14:33:40;4.13;;;2.00;;
32455;SDS011;18912;43.270;27.942;2022-08-03T14:36:05;2.23;;;1.70;;
32455;SDS011;18912;43.270;27.942;2022-08-03T14:38:31;10.33;;;1.90;;
32455;SDS011;18912;43.270;27.942;2022-08-03T14:40:56;6.37;;;1.70;;
32455;SDS011;18912;43.270;27.942;2022-08-03T14:43:22;5.07;;;2.10;;
32455;SDS011;18912;43.270;27.942;2022-08-03T14:45:48;7.60;;;1.90;;
32455;SDS011;18912;43.270;27.942;2022-08-03T14:48:17;3.63;;;1.83;;
32455;SDS011;18912;43.270;27.942;2022-08-03T14:50:43;6.13;;;1.95;;
32455;SDS011;18912;43.270;27.942;2022-08-03T14:53:09;4.23;;;1.60;;
32455;SDS011;18912;43.270;27.942;2022-08-03T14:55:34;3.63;;;2.03;;
32455;SDS011;18912;43.270;27.942;2022-08-03T14:58:00;5.67;;;1.87;;
32455;SDS011;18912;43.270;27.942;2022-08-03T15:00:30;3.05;;;1.75;;
32455;SDS011;18912;43.270;27.942;2022-08-03T15:02:58;5.80;;;1.77;;
32455;SDS011;18912;43.270;27.942;2022-08-03T15:05:24;6.27;;;2.03;;
32455;SDS011;18912;43.270;27.942;2022-08-03T15:07:49;10.73;;;3.13;;
32455;SDS011;18912;43.270;27.942;2022-08-03T15:10:15;5.43;;;2.57;;
32455;SDS011;18912;43.270;27.942;2022-08-03T15:12:40;2.50;;;1.53;;
32455;SDS011;18912;43.270;27.942;2022-08-03T15:15:06;7.63;;;2.20;;
32455;SDS011;18912;43.270;27.942;2022-08-03T15:17:32;4.38;;;2.78;;
32455;SDS011;18912;43.270;27.942;2022-08-03T15:19:57;3.60;;;2.30;;
32455;SDS011;18912;43.270;27.942;2022-08-03T15:22:23;11.50;;;2.63;;
32455;SDS011;18912;43.270;27.942;2022-08-03T15:24:48;10.73;;;2.40;;
32455;SDS011;18912;43.270;27.942;2022-08-03T15:27:14;3.00;;;2.10;;
32455;SDS011;18912;43.270;27.942;2022-08-03T15:29:39;7.10;;;1.90;;
32455;SDS011;18912;43.270;27.942;2022-08-03T15:32:05;2.63;;;1.90;;
32455;SDS011;18912;43.270;27.942;2022-08-03T15:34:30;3.73;;;1.80;;
32455;SDS011;18912;43.270;27.942;2022-08-03T15:36:56;11.97;;;2.73;;
32455;SDS011;18912;43.270;27.942;2022-08-03T15:39:21;13.70;;;2.57;;
32455;SDS011;18912;43.270;27.942;2022-08-03T15:41:47;7.30;;;2.20;;